Time;durP1;ratioP1;P1;durP2;ratioP2;P2;SDS_P1;SDS_P2;PMS_P1;PMS_P2;Temp;Humidity;BMP_temperature;BMP_pressure;BME280_temperature;BME280_humidity;BME280_pressure;Samples;Min_cycle;Max_cycle;Signal;HPM_P1;HPM_P2
2023/07/05 00:00:46;;;;;;;7.80;3.65;;;15.10;99.90;;;;;;5082944;28;20105;-69
2023/07/05 00:03:11;;;;;;;13.52;3.90;;;15.10;99.90;;;;;;5081709;28;20032;-69
2023/07/05 00:05:37;;;;;;;12.15;4.50;;;15.00;99.90;;;;;;5087089;28;20571;-69
2023/07/05 00:08:04;;;;;;;11.45;4.68;;;15.00;99.90;;;;;;5085769;28;20039;-68
2023/07/05 00:10:30;;;;;;;8.25;3.85;;;15.10;99.90;;;;;;5081156;28;20524;-68
2023/07/05 00:12:55;;;;;;;9.02;4.47;;;15.00;99.90;;;;;;5089715;28;20487;-69
2023/07/05 00:15:21;;;;;;;9.35;4.70;;;15.10;99.90;;;;;;5089058;28;20038;-69
2023/07/05 00:17:46;;;;;;;12.05;4.60;;;14.90;99.90;;;;;;5087769;28;20515;-69
2023/07/05 00:20:12;;;;;;;7.85;4.43;;;15.10;99.90;;;;;;5089969;28;20104;-69
2023/07/05 00:22:39;;;;;;;10.38;5.15;;;15.10;99.90;;;;;;5089806;28;20119;-69
2023/07/05 00:25:05;;;;;;;7.70;4.72;;;15.00;99.90;;;;;;5090597;28;20435;-69
2023/07/05 00:27:31;;;;;;;7.35;4.80;;;14.90;99.90;;;;;;5090278;28;20048;-69
2023/07/05 00:29:56;;;;;;;13.38;4.93;;;15.00;99.90;;;;;;5089129;28;20115;-69
2023/07/05 00:32:22;;;;;;;10.85;4.88;;;15.10;99.90;;;;;;5088933;28;20048;-69
2023/07/05 00:34:48;;;;;;;10.38;4.20;;;15.00;99.90;;;;;;5089554;28;20093;-69
2023/07/05 00:37:13;;;;;;;12.05;4.93;;;15.00;99.90;;;;;;5082104;28;20032;-69
2023/07/05 00:39:39;;;;;;;9.75;4.55;;;14.80;99.90;;;;;;5084116;28;20130;-70
2023/07/05 00:42:05;;;;;;;15.50;5.78;;;15.00;99.90;;;;;;5089436;28;20047;-69
2023/07/05 00:44:31;;;;;;;13.68;6.00;;;14.90;99.90;;;;;;5084742;28;20128;-69
2023/07/05 00:47:17;;;;;;;8.82;5.20;;;14.80;99.90;;;;;;5088675;28;20130;-69
2023/07/05 00:49:43;;;;;;;12.15;5.60;;;14.80;99.90;;;;;;5084633;28;20052;-69
2023/07/05 00:52:16;;;;;;;11.05;5.05;;;14.80;99.90;;;;;;5081635;28;20447;-69
2023/07/05 00:54:47;;;;;;;15.05;5.40;;;14.80;99.90;;;;;;5078538;28;20043;-69
2023/07/05 00:57:23;;;;;;;10.15;5.72;;;14.70;99.90;;;;;;5082804;28;20036;-68
2023/07/05 00:59:55;;;;;;;10.57;5.22;;;14.70;99.90;;;;;;5082955;28;20040;-69
2023/07/05 01:02:22;;;;;;;7.35;4.82;;;14.70;99.90;;;;;;5085592;28;20040;-69
2023/07/05 01:04:48;;;;;;;9.88;5.75;;;14.60;99.90;;;;;;5087706;28;20032;-69
2023/07/05 01:07:13;;;;;;;11.05;6.20;;;14.70;99.90;;;;;;5082158;28;20045;-69
2023/07/05 01:09:39;;;;;;;10.00;5.60;;;14.80;99.90;;;;;;5085665;28;20086;-69
2023/07/05 01:12:39;;;;;;;16.55;5.38;;;14.80;99.90;;;;;;5088235;28;20051;-69
2023/07/05 01:15:10;;;;;;;10.00;5.20;;;14.80;99.90;;;;;;5082334;28;20036;-68
2023/07/05 01:18:06;;;;;;;11.77;5.60;;;14.90;99.90;;;;;;5084661;28;20036;-68
2023/07/05 01:20:44;;;;;;;14.57;6.90;;;14.90;99.90;;;;;;5080779;28;20044;-69
2023/07/05 01:23:12;;;;;;;13.20;6.25;;;14.80;99.90;;;;;;5080144;28;20040;-70
2023/07/05 01:26:00;;;;;;;10.07;6.10;;;14.80;99.90;;;;;;5086522;28;20043;-69
2023/07/05 01:28:45;;;;;;;12.73;6.72;;;14.90;99.90;;;;;;5089493;28;20044;-69
2023/07/05 01:31:41;;;;;;;12.73;6.07;;;15.00;99.90;;;;;;5085108;28;20102;-69
2023/07/05 01:34:30;;;;;;;13.85;6.60;;;14.90;99.90;;;;;;5088110;28;20567;-69
2023/07/05 01:36:56;;;;;;;12.52;7.10;;;14.80;99.90;;;;;;5093952;28;20516;-68
2023/07/05 01:39:22;;;;;;;11.63;7.82;;;14.80;99.90;;;;;;5091311;28;20047;-69
2023/07/05 01:41:48;;;;;;;13.13;7.60;;;15.00;99.90;;;;;;5085902;28;20048;-69
2023/07/05 01:44:17;;;;;;;10.13;7.20;;;14.90;99.90;;;;;;5089115;28;20036;-69
2023/07/05 01:46:48;;;;;;;13.48;7.70;;;14.90;99.90;;;;;;5086778;28;20537;-70
2023/07/05 01:49:25;;;;;;;15.82;7.70;;;15.00;99.90;;;;;;5086864;28;20407;-69
2023/07/05 01:52:29;;;;;;;11.98;7.95;;;15.00;99.90;;;;;;5091024;28;20040;-69
2023/07/05 01:55:04;;;;;;;16.45;8.90;;;14.80;99.90;;;;;;5089191;28;20043;-70
2023/07/05 01:57:40;;;;;;;17.58;9.50;;;14.70;99.90;;;;;;5087870;28;20077;-69
2023/07/05 02:00:10;;;;;;;13.23;8.50;;;14.70;99.90;;;;;;5086620;28;20050;-69
2023/07/05 02:02:40;;;;;;;11.80;8.30;;;14.70;99.90;;;;;;5089135;28;20101;-68
2023/07/05 02:05:08;;;;;;;13.52;8.30;;;14.60;99.90;;;;;;5093038;28;20039;-68
2023/07/05 02:07:34;;;;;;;14.15;8.90;;;14.90;99.90;;;;;;5087755;28;20572;-69
2023/07/05 02:10:00;;;;;;;17.20;8.98;;;14.70;99.90;;;;;;5081333;28;20033;-70
2023/07/05 02:12:26;;;;;;;14.63;9.00;;;14.70;99.90;;;;;;5088995;28;20090;-69
2023/07/05 02:14:53;;;;;;;14.65;8.77;;;14.70;99.90;;;;;;5087346;28;20105;-69
2023/07/05 02:17:19;;;;;;;14.43;8.45;;;14.60;99.90;;;;;;5090904;28;20035;-69
2023/07/05 02:19:45;;;;;;;15.93;8.98;;;14.70;99.90;;;;;;5085326;28;20482;-69
2023/07/05 02:22:11;;;;;;;15.95;9.00;;;14.50;99.90;;;;;;5092844;28;20080;-69
2023/07/05 02:24:37;;;;;;;15.63;8.55;;;14.60;99.90;;;;;;5087296;28;20446;-69
2023/07/05 02:27:03;;;;;;;20.15;10.02;;;14.50;99.90;;;;;;5092725;28;20040;-69
2023/07/05 02:29:32;;;;;;;15.43;9.10;;;14.60;99.90;;;;;;5086230;28;20036;-70
2023/07/05 02:31:58;;;;;;;17.55;10.38;;;14.50;99.90;;;;;;5081848;28;20044;-69
2023/07/05 02:34:25;;;;;;;14.98;9.27;;;14.70;99.90;;;;;;5088422;28;20054;-69
2023/07/05 02:36:50;;;;;;;14.20;9.77;;;14.70;99.90;;;;;;5088851;28;20036;-69
2023/07/05 02:39:16;;;;;;;19.35;11.38;;;14.60;99.90;;;;;;5087815;28;20039;-69
2023/07/05 02:41:42;;;;;;;20.40;11.32;;;14.80;99.90;;;;;;5089172;28;20051;-69
2023/07/05 02:44:07;;;;;;;23.35;14.32;;;14.50;99.90;;;;;;5085169;28;20484;-69
2023/07/05 02:46:33;;;;;;;23.63;15.55;;;14.50;99.90;;;;;;5089651;28;20407;-68
2023/07/05 02:48:58;;;;;;;32.78;19.40;;;14.50;99.90;;;;;;5089583;28;20106;-69
2023/07/05 02:51:27;;;;;;;30.33;20.02;;;14.60;99.90;;;;;;5084713;28;20052;-69
2023/07/05 02:53:52;;;;;;;31.58;22.02;;;14.80;99.90;;;;;;5089623;28;20066;-69
2023/07/05 02:56:18;;;;;;;32.80;20.80;;;14.60;99.90;;;;;;5089600;28;20490;-69
2023/07/05 02:58:44;;;;;;;26.40;18.08;;;14.50;99.90;;;;;;5087231;28;20039;-69
2023/07/05 03:01:09;;;;;;;21.90;15.10;;;14.60;99.90;;;;;;5080094;28;20072;-69
2023/07/05 03:03:35;;;;;;;22.80;13.82;;;14.70;99.90;;;;;;5088737;28;20038;-69
2023/07/05 03:06:01;;;;;;;23.98;13.13;;;14.80;99.90;;;;;;5088623;28;20036;-69
2023/07/05 03:08:28;;;;;;;19.95;12.50;;;14.70;99.90;;;;;;5087875;28;20067;-69
2023/07/05 03:10:58;;;;;;;24.48;12.30;;;14.70;99.90;;;;;;5079273;28;20051;-69
2023/07/05 03:13:33;;;;;;;16.60;11.77;;;14.70;99.90;;;;;;5084835;28;20408;-69
2023/07/05 03:15:59;;;;;;;14.98;10.30;;;14.40;99.90;;;;;;5084309;28;20036;-69
2023/07/05 03:18:26;;;;;;;19.55;11.52;;;14.60;99.90;;;;;;5088938;28;20039;-69
2023/07/05 03:20:51;;;;;;;16.90;10.98;;;14.60;99.90;;;;;;5086182;28;20553;-69
2023/07/05 03:23:17;;;;;;;19.25;11.75;;;14.40;99.90;;;;;;5090515;28;20036;-69
2023/07/05 03:25:53;;;;;;;20.05;11.52;;;14.50;99.90;;;;;;5087474;28;20040;-69
2023/07/05 03:28:18;;;;;;;17.42;11.45;;;14.40;99.90;;;;;;5083878;28;20043;-70
2023/07/05 03:30:54;;;;;;;17.73;11.95;;;14.30;99.90;;;;;;5081058;28;20040;-69
2023/07/05 03:33:19;;;;;;;18.52;10.70;;;14.40;99.90;;;;;;5086452;28;20032;-69
2023/07/05 03:35:54;;;;;;;16.88;10.30;;;14.40;99.90;;;;;;5087355;28;20156;-69
2023/07/05 03:38:19;;;;;;;18.80;11.45;;;14.70;99.90;;;;;;5092078;28;20119;-69
2023/07/05 03:40:45;;;;;;;19.23;11.05;;;14.60;99.90;;;;;;5088455;28;20123;-69
2023/07/05 03:43:10;;;;;;;17.95;12.68;;;14.50;99.90;;;;;;5085984;28;20085;-69
2023/07/05 03:45:36;;;;;;;20.73;11.00;;;14.50;99.90;;;;;;5089097;28;20063;-69
2023/07/05 03:48:01;;;;;;;19.35;11.77;;;14.50;99.90;;;;;;5082300;28;20539;-69
2023/07/05 03:50:27;;;;;;;17.88;10.88;;;14.60;99.90;;;;;;5085215;28;20500;-69
2023/07/05 03:52:53;;;;;;;18.45;11.13;;;14.50;99.90;;;;;;5089235;28;20036;-69
2023/07/05 03:55:19;;;;;;;21.83;11.65;;;14.60;99.90;;;;;;5087339;28;20044;-69
2023/07/05 03:57:44;;;;;;;18.02;12.30;;;14.70;99.90;;;;;;5091046;28;20043;-69
2023/07/05 04:00:11;;;;;;;19.52;10.90;;;14.70;99.90;;;;;;5089261;28;20044;-69
2023/07/05 04:02:36;;;;;;;17.50;10.27;;;14.70;99.90;;;;;;5082262;28;20039;-69
2023/07/05 04:05:02;;;;;;;19.15;11.73;;;14.70;99.90;;;;;;5086097;28;20411;-69
2023/07/05 04:07:29;;;;;;;17.73;11.30;;;14.50;99.90;;;;;;5080784;28;20040;-69
2023/07/05 04:09:54;;;;;;;23.58;11.55;;;14.50;99.90;;;;;;5079978;28;20107;-69
2023/07/05 04:12:20;;;;;;;17.95;11.52;;;14.70;99.90;;;;;;5081831;28;20120;-69
2023/07/05 04:14:45;;;;;;;15.02;11.45;;;14.70;99.90;;;;;;5087545;28;20089;-69
2023/07/05 04:17:11;;;;;;;18.48;10.77;;;14.50;99.90;;;;;;5081577;28;20090;-69
2023/07/05 04:19:37;;;;;;;17.05;10.50;;;14.70;99.90;;;;;;5090209;28;20040;-70
2023/07/05 04:22:02;;;;;;;15.82;10.95;;;14.60;99.90;;;;;;5088324;28;20032;-69
2023/07/05 04:24:28;;;;;;;15.70;9.55;;;14.70;99.90;;;;;;5085002;28;20039;-69
2023/07/05 04:26:53;;;;;;;22.08;10.50;;;14.80;99.90;;;;;;5080381;28;20044;-69
2023/07/05 04:29:19;;;;;;;13.32;10.07;;;14.80;99.90;;;;;;5081387;28;20456;-69
2023/07/05 04:31:44;;;;;;;15.27;10.35;;;14.90;99.90;;;;;;5088657;28;20137;-70
2023/07/05 04:34:10;;;;;;;15.80;10.57;;;14.90;99.90;;;;;;5084435;28;20031;-70
2023/07/05 04:36:36;;;;;;;14.95;10.43;;;14.90;99.90;;;;;;5089063;28;20520;-69
2023/07/05 04:39:01;;;;;;;14.60;10.35;;;15.10;99.90;;;;;;5088790;28;20052;-70
2023/07/05 04:41:27;;;;;;;15.15;11.50;;;15.10;99.90;;;;;;5085949;28;20048;-70
2023/07/05 04:43:53;;;;;;;13.73;10.38;;;15.10;99.90;;;;;;5086387;28;20052;-70
2023/07/05 04:46:19;;;;;;;15.43;10.27;;;15.20;99.90;;;;;;5086151;28;21895;-70
2023/07/05 04:48:45;;;;;;;15.15;9.60;;;15.10;99.90;;;;;;5089907;28;20032;-70
2023/07/05 04:51:11;;;;;;;15.00;9.70;;;15.20;99.90;;;;;;5089173;28;20484;-70
2023/07/05 04:53:36;;;;;;;12.55;9.10;;;15.10;99.90;;;;;;5089539;28;20539;-70
2023/07/05 04:56:02;;;;;;;14.05;8.27;;;15.20;99.90;;;;;;5083623;28;20051;-70
2023/07/05 04:58:28;;;;;;;13.55;8.13;;;15.10;99.90;;;;;;5081121;28;20031;-70
2023/07/05 05:01:03;;;;;;;12.73;7.90;;;15.30;99.90;;;;;;5087162;28;20090;-70
2023/07/05 05:03:29;;;;;;;15.68;8.15;;;15.20;99.90;;;;;;5088133;28;20040;-70
2023/07/05 05:05:56;;;;;;;11.13;7.15;;;15.20;99.90;;;;;;5087184;28;20032;-69
2023/07/05 05:08:23;;;;;;;10.98;6.82;;;15.30;99.90;;;;;;5085314;28;20078;-70
2023/07/05 05:10:55;;;;;;;8.95;6.00;;;15.40;99.90;;;;;;5094290;28;20457;-71
2023/07/05 05:13:22;;;;;;;7.57;5.40;;;15.20;99.90;;;;;;5091149;28;20036;-71
2023/07/05 05:15:48;;;;;;;7.22;4.60;;;15.20;99.90;;;;;;5083756;28;20118;-70
2023/07/05 05:18:14;;;;;;;9.38;4.47;;;15.20;99.90;;;;;;5090558;28;20616;-72
2023/07/05 05:20:40;;;;;;;7.50;4.93;;;15.00;99.90;;;;;;5082028;28;20048;-70
2023/07/05 05:23:06;;;;;;;6.78;4.43;;;15.00;99.90;;;;;;5087916;28;20040;-70
2023/07/05 05:25:32;;;;;;;6.45;4.25;;;15.00;99.90;;;;;;5091925;28;20674;-69
2023/07/05 05:27:58;;;;;;;7.57;4.68;;;14.80;99.90;;;;;;5082797;28;20046;-68
2023/07/05 05:30:25;;;;;;;7.22;4.55;;;14.90;99.90;;;;;;5087052;28;20104;-68
2023/07/05 05:32:51;;;;;;;8.13;4.43;;;14.70;99.90;;;;;;5079559;28;20499;-68
2023/07/05 05:35:17;;;;;;;10.82;4.75;;;14.90;99.90;;;;;;5077762;28;20036;-69
2023/07/05 05:37:42;;;;;;;5.55;4.47;;;14.80;99.90;;;;;;5087416;28;20499;-69
2023/07/05 05:40:09;;;;;;;6.32;4.57;;;15.00;99.90;;;;;;5088575;28;20123;-69
2023/07/05 05:42:35;;;;;;;6.65;4.03;;;15.20;99.90;;;;;;5094627;28;20165;-69
2023/07/05 05:45:01;;;;;;;7.75;4.00;;;15.50;99.90;;;;;;5094457;28;20089;-69
2023/07/05 05:47:26;;;;;;;7.25;4.53;;;15.50;99.90;;;;;;5094510;28;20518;-70
2023/07/05 05:49:52;;;;;;;7.22;4.15;;;15.60;99.90;;;;;;5088952;28;20036;-69
2023/07/05 05:52:17;;;;;;;5.15;4.65;;;15.60;99.90;;;;;;5089836;28;20044;-69
2023/07/05 05:54:43;;;;;;;6.68;4.63;;;15.90;99.90;;;;;;5094371;28;20047;-69
2023/07/05 05:57:08;;;;;;;6.72;4.10;;;16.30;99.90;;;;;;5092908;28;20032;-69
2023/07/05 05:59:34;;;;;;;6.13;3.90;;;16.30;99.90;;;;;;5094187;28;20040;-69
2023/07/05 06:02:00;;;;;;;8.00;4.97;;;16.40;99.90;;;;;;5093995;28;20047;-69
2023/07/05 06:04:26;;;;;;;5.57;3.97;;;16.20;99.90;;;;;;5093244;28;20380;-70
2023/07/05 06:06:52;;;;;;;5.65;3.65;;;16.10;99.90;;;;;;5093247;28;20534;-70
2023/07/05 06:09:18;;;;;;;7.35;4.03;;;15.90;99.90;;;;;;5092303;28;20048;-69
2023/07/05 06:11:43;;;;;;;6.45;3.92;;;15.90;99.90;;;;;;5085228;28;20050;-71
2023/07/05 06:14:09;;;;;;;5.30;3.97;;;15.90;99.90;;;;;;5093583;28;20036;-71
2023/07/05 06:16:35;;;;;;;6.95;3.63;;;16.30;99.90;;;;;;5094367;28;20036;-70
2023/07/05 06:19:00;;;;;;;5.35;3.70;;;16.20;99.90;;;;;;5093640;28;20607;-71
2023/07/05 06:21:26;;;;;;;4.88;3.78;;;16.40;99.90;;;;;;5093946;28;20161;-70
2023/07/05 06:23:52;;;;;;;5.70;3.58;;;16.10;99.90;;;;;;5094087;28;20040;-70
2023/07/05 06:26:19;;;;;;;5.43;3.53;;;15.90;99.90;;;;;;5094045;28;20427;-70
2023/07/05 06:28:46;;;;;;;8.93;4.00;;;16.00;99.90;;;;;;5093300;28;20042;-70
2023/07/05 06:31:11;;;;;;;4.07;2.90;;;15.70;99.90;;;;;;5093815;28;20077;-70
2023/07/05 06:33:40;;;;;;;5.63;3.33;;;15.80;99.90;;;;;;5092878;28;20480;-70
2023/07/05 06:36:07;;;;;;;5.65;3.53;;;15.80;99.90;;;;;;5093893;28;20064;-70
2023/07/05 06:38:33;;;;;;;4.40;2.90;;;16.00;99.90;;;;;;5093340;28;20068;-70
2023/07/05 06:40:58;;;;;;;11.27;3.60;;;15.90;99.90;;;;;;5093372;28;20043;-70
2023/07/05 06:43:25;;;;;;;7.10;3.40;;;16.00;99.90;;;;;;5093547;28;20511;-70
2023/07/05 06:45:52;;;;;;;5.13;3.28;;;16.20;99.90;;;;;;5093816;28;20039;-69
2023/07/05 06:48:18;;;;;;;4.93;3.33;;;16.20;99.90;;;;;;5093355;28;20111;-70
2023/07/05 06:50:52;;;;;;;5.18;2.88;;;16.00;99.90;;;;;;5093106;28;20028;-71
2023/07/05 06:53:18;;;;;;;6.47;3.45;;;16.00;99.90;;;;;;5093484;28;20036;-70
2023/07/05 06:55:47;;;;;;;5.22;3.53;;;15.90;99.90;;;;;;5088921;28;20500;-71
2023/07/05 06:58:13;;;;;;;5.07;2.92;;;15.90;99.90;;;;;;5089446;28;20104;-71
2023/07/05 07:00:39;;;;;;;5.43;3.03;;;15.90;99.90;;;;;;5093062;28;20044;-71
2023/07/05 07:03:05;;;;;;;4.25;2.72;;;15.80;99.90;;;;;;5093440;28;20051;-70
2023/07/05 07:05:31;;;;;;;5.20;2.97;;;16.10;99.90;;;;;;5093358;28;20081;-70
2023/07/05 07:07:57;;;;;;;6.63;3.03;;;16.00;99.90;;;;;;5092969;28;20040;-70
2023/07/05 07:10:23;;;;;;;5.10;2.80;;;16.20;99.90;;;;;;5092640;28;20036;-70
2023/07/05 07:12:48;;;;;;;6.18;2.78;;;16.20;99.90;;;;;;5093447;28;20055;-70
2023/07/05 07:15:14;;;;;;;7.00;3.70;;;16.20;99.90;;;;;;5093261;28;20059;-71
2023/07/05 07:17:39;;;;;;;5.82;3.30;;;16.30;99.90;;;;;;5092882;28;20036;-71
2023/07/05 07:20:07;;;;;;;6.97;2.85;;;16.30;99.90;;;;;;5092646;28;20036;-71
2023/07/05 07:22:33;;;;;;;4.55;2.72;;;16.20;99.90;;;;;;5091692;28;20051;-71
2023/07/05 07:24:59;;;;;;;5.25;2.60;;;16.10;99.90;;;;;;5091762;28;20407;-71
2023/07/05 07:27:25;;;;;;;3.92;2.35;;;16.00;99.90;;;;;;5092681;28;20051;-70
2023/07/05 07:29:53;;;;;;;6.35;3.00;;;16.00;99.90;;;;;;5102146;22;20518;-68
2023/07/05 07:32:19;;;;;;;4.00;2.65;;;15.90;99.90;;;;;;5054544;28;20412;-69
2023/07/05 07:34:45;;;;;;;9.73;2.90;;;15.80;99.90;;;;;;5072668;28;20079;-68
2023/07/05 07:37:11;;;;;;;6.72;2.80;;;15.80;99.90;;;;;;5071541;28;20028;-68
2023/07/05 07:39:36;;;;;;;5.13;2.35;;;15.80;99.90;;;;;;5072220;28;20044;-68
2023/07/05 07:42:02;;;;;;;4.30;2.40;;;16.10;99.90;;;;;;5071945;28;20131;-68
2023/07/05 07:44:28;;;;;;;4.85;2.40;;;16.20;99.90;;;;;;5070978;28;20048;-68
2023/07/05 07:46:53;;;;;;;4.15;2.40;;;16.20;99.90;;;;;;5072425;28;20044;-68
2023/07/05 07:49:20;;;;;;;4.38;2.25;;;16.30;99.90;;;;;;5070459;28;20044;-68
2023/07/05 07:51:45;;;;;;;8.95;2.60;;;16.20;99.90;;;;;;5071764;28;20044;-68
2023/07/05 07:54:16;;;;;;;5.95;2.75;;;15.90;99.90;;;;;;5070767;28;20044;-68
2023/07/05 07:56:44;;;;;;;5.10;2.78;;;15.60;99.90;;;;;;5072287;28;20051;-68
2023/07/05 07:59:10;;;;;;;4.72;2.85;;;15.20;99.90;;;;;;5071836;28;20040;-68
2023/07/05 08:01:40;;;;;;;5.22;3.28;;;15.10;99.90;;;;;;5071671;28;20557;-70
2023/07/05 08:04:08;;;;;;;4.90;2.15;;;14.90;99.90;;;;;;5070445;28;20506;-68
2023/07/05 08:06:51;;;;;;;4.47;2.40;;;14.80;99.90;;;;;;5070664;28;20051;-68
2023/07/05 08:09:19;;;;;;;3.70;1.58;;;14.50;99.90;;;;;;5071737;28;20073;-68
2023/07/05 08:11:45;;;;;;;3.17;1.20;;;14.20;99.90;;;;;;5071680;28;20041;-68
2023/07/05 08:14:13;;;;;;;1.60;0.95;;;14.20;99.90;;;;;;5071968;28;20035;-68
2023/07/05 08:16:40;;;;;;;1.52;0.80;;;14.00;99.90;;;;;;5070572;28;20032;-67
2023/07/05 08:19:06;;;;;;;2.22;0.88;;;13.80;99.90;;;;;;5071424;28;20071;-67
2023/07/05 08:21:31;;;;;;;1.48;0.60;;;13.70;99.90;;;;;;5071317;28;20516;-68
2023/07/05 08:23:57;;;;;;;2.13;0.75;;;13.70;99.90;;;;;;5071857;28;20547;-67
2023/07/05 08:26:23;;;;;;;1.73;0.70;;;13.50;99.90;;;;;;5071680;28;20053;-68
2023/07/05 08:28:48;;;;;;;1.95;0.50;;;13.40;99.90;;;;;;5071393;28;20087;-68
2023/07/05 08:31:14;;;;;;;1.40;0.57;;;13.40;99.90;;;;;;5069812;28;20128;-68
2023/07/05 08:33:40;;;;;;;2.05;0.82;;;13.30;99.90;;;;;;5071460;28;20044;-68
2023/07/05 08:36:13;;;;;;;0.82;0.43;;;13.20;99.90;;;;;;5070295;28;20052;-68
2023/07/05 08:38:49;;;;;;;1.40;0.40;;;13.20;99.90;;;;;;5070998;28;20039;-68
2023/07/05 08:41:40;;;;;;;3.60;1.20;;;13.00;99.90;;;;;;5069837;28;20101;-67
2023/07/05 08:44:22;;;;;;;2.05;0.63;;;13.10;99.90;;;;;;5071524;28;20534;-68
2023/07/05 08:47:04;;;;;;;2.55;0.40;;;13.00;99.90;;;;;;5070663;28;20037;-68
2023/07/05 08:49:40;;;;;;;4.72;0.60;;;13.00;99.90;;;;;;5071476;28;20040;-67
2023/07/05 08:52:30;;;;;;;0.68;0.52;;;13.00;99.90;;;;;;5070950;28;20500;-68
2023/07/05 08:55:01;;;;;;;2.15;0.80;;;13.00;99.90;;;;;;5070893;28;20048;-69
2023/07/05 08:57:35;;;;;;;2.15;0.65;;;13.00;99.90;;;;;;5069891;28;20521;-68
2023/07/05 09:00:11;;;;;;;;;;;12.90;99.90;;;;;;5071799;28;20044;-68
2023/07/05 09:02:37;;;;;;;1.10;0.77;;;12.90;99.90;;;;;;5071424;28;19947;-68
2023/07/05 09:05:04;;;;;;;0.90;0.57;;;12.80;99.90;;;;;;5069870;28;20087;-68
2023/07/05 09:07:32;;;;;;;1.52;0.57;;;13.00;99.90;;;;;;5071283;28;20032;-68
2023/07/05 09:10:07;;;;;;;1.55;0.70;;;12.90;99.90;;;;;;5071248;28;20484;-68
2023/07/05 09:13:12;;;;;;;3.78;0.98;;;13.00;99.90;;;;;;5070154;28;20048;-68
2023/07/05 09:15:45;;;;;;;1.58;0.88;;;12.80;99.90;;;;;;5036662;28;20049;-68
2023/07/05 09:18:50;;;;;;;6.82;0.80;;;12.70;99.90;;;;;;5049623;28;20060;-68
2023/07/05 09:21:27;;;;;;;7.22;0.90;;;12.80;99.90;;;;;;5050237;28;20048;-68
2023/07/05 09:24:00;;;;;;;4.30;0.80;;;12.90;99.90;;;;;;5049738;28;20048;-68
2023/07/05 09:26:33;;;;;;;3.50;0.90;;;12.80;99.90;;;;;;5053642;28;20052;-68
2023/07/05 09:29:05;;;;;;;3.08;1.30;;;12.80;99.90;;;;;;5070913;28;20040;-68
2023/07/05 09:31:33;;;;;;;5.75;1.40;;;12.90;99.90;;;;;;5070570;28;20045;-68
2023/07/05 09:34:17;;;;;;;3.70;1.10;;;13.00;99.90;;;;;;5071063;28;20048;-68
2023/07/05 09:36:42;;;;;;;5.50;1.40;;;13.20;99.90;;;;;;5071250;28;20048;-68
2023/07/05 09:39:41;;;;;;;4.22;1.42;;;13.20;99.90;;;;;;5070592;28;20147;-69
2023/07/05 09:42:18;;;;;;;5.90;1.38;;;13.30;99.90;;;;;;5070739;28;20041;-68
2023/07/05 09:44:44;;;;;;;2.63;1.25;;;13.30;99.90;;;;;;5069528;28;20066;-68
2023/07/05 09:47:09;;;;;;;11.13;1.75;;;13.40;99.90;;;;;;5069037;28;20044;-68
2023/07/05 09:49:35;;;;;;;3.38;1.30;;;13.40;99.90;;;;;;5069946;28;20076;-68
2023/07/05 09:52:01;;;;;;;6.35;1.30;;;13.50;99.90;;;;;;5073118;28;20527;-67
2023/07/05 09:54:30;;;;;;;9.27;1.65;;;13.50;99.90;;;;;;5074477;28;20041;-68
2023/07/05 09:56:59;;;;;;;6.85;1.60;;;13.50;99.90;;;;;;5074425;28;20036;-68
2023/07/05 09:59:25;;;;;;;7.47;1.63;;;13.50;99.90;;;;;;5074323;28;20144;-68
2023/07/05 10:01:55;;;;;;;4.43;1.42;;;13.60;99.90;;;;;;5074103;28;20116;-68
2023/07/05 10:04:26;;;;;;;4.50;1.42;;;13.70;99.90;;;;;;5074382;28;20051;-68
2023/07/05 10:06:52;;;;;;;6.70;1.63;;;13.80;99.90;;;;;;5074338;28;20116;-68
2023/07/05 10:09:21;;;;;;;5.72;0.57;;;14.00;99.90;;;;;;5073714;28;20033;-68
2023/07/05 10:11:51;;;;;;;3.72;0.57;;;14.00;99.90;;;;;;5073608;28;20041;-68
2023/07/05 10:14:19;;;;;;;3.83;0.52;;;14.00;99.90;;;;;;5073963;28;20523;-68
2023/07/05 10:16:48;;;;;;;7.38;1.35;;;14.10;99.90;;;;;;5074088;28;20040;-69
2023/07/05 10:19:25;;;;;;;7.00;1.35;;;14.30;99.90;;;;;;5073659;28;20040;-68
2023/07/05 10:22:03;;;;;;;5.35;0.70;;;14.30;99.90;;;;;;5072486;28;20049;-68
2023/07/05 10:24:31;;;;;;;7.28;0.80;;;14.50;99.90;;;;;;5073835;28;20105;-69
2023/07/05 10:27:03;;;;;;;2.60;0.70;;;14.60;99.90;;;;;;5074022;28;20047;-68
2023/07/05 10:29:30;;;;;;;3.70;0.45;;;14.70;99.90;;;;;;5073756;28;20115;-68
2023/07/05 10:32:00;;;;;;;5.25;0.68;;;14.90;99.90;;;;;;5073109;28;20412;-68
2023/07/05 10:34:26;;;;;;;2.95;0.82;;;14.90;99.90;;;;;;5073624;28;20033;-68
2023/07/05 10:36:52;;;;;;;5.35;0.50;;;15.00;99.90;;;;;;5073457;28;20085;-68
2023/07/05 10:39:23;;;;;;;5.82;0.73;;;15.50;99.90;;;;;;5073318;28;20040;-68
2023/07/05 10:41:57;;;;;;;2.05;0.40;;;15.60;99.90;;;;;;5071915;28;20492;-68
2023/07/05 10:44:32;;;;;;;6.65;0.70;;;15.90;99.90;;;;;;5073608;28;20044;-68
2023/07/05 10:46:58;;;;;;;5.15;0.57;;;16.10;99.90;;;;;;5073492;28;20037;-68
2023/07/05 10:49:25;;;;;;;1.08;0.60;;;16.50;99.90;;;;;;5072897;28;20075;-67
2023/07/05 10:51:54;;;;;;;4.10;0.70;;;16.40;99.90;;;;;;5073134;28;20045;-68
2023/07/05 10:54:42;;;;;;;2.75;0.70;;;16.50;99.90;;;;;;5073183;28;20557;-68
2023/07/05 10:57:52;;;;;;;5.68;0.50;;;16.60;99.90;;;;;;5072922;28;20037;-69
2023/07/05 11:00:28;;;;;;;3.35;0.60;;;16.80;99.90;;;;;;5065923;28;20225;-69
2023/07/05 11:03:29;;;;;;;2.42;0.80;;;16.80;99.90;;;;;;5073198;28;20090;-68
2023/07/05 11:05:58;;;;;;;4.85;0.55;;;16.60;99.90;;;;;;5072555;28;20530;-69
2023/07/05 11:08:29;;;;;;;2.47;0.73;;;16.70;99.90;;;;;;5072644;28;20511;-68
2023/07/05 11:10:58;;;;;;;3.10;0.70;;;16.50;99.90;;;;;;5071423;28;20044;-69
2023/07/05 11:13:24;;;;;;;3.97;1.15;;;16.60;99.90;;;;;;5072981;28;20060;-69
2023/07/05 11:15:49;;;;;;;4.30;0.43;;;16.40;99.90;;;;;;5072942;28;20032;-69
2023/07/05 11:18:20;;;;;;;4.05;0.73;;;16.40;99.90;;;;;;5072505;28;20064;-70
2023/07/05 11:20:49;;;;;;;3.70;0.80;;;16.30;99.90;;;;;;5065987;28;20051;-67
2023/07/05 11:23:51;;;;;;;4.38;0.95;;;16.40;99.90;;;;;;5068524;28;20048;-67
2023/07/05 11:26:39;;;;;;;3.08;0.75;;;16.40;99.90;;;;;;5063717;28;20044;-67
2023/07/05 11:29:26;;;;;;;3.15;0.50;;;16.70;99.90;;;;;;5067902;28;20048;-67
2023/07/05 11:31:52;;;;;;;2.55;1.05;;;16.90;99.90;;;;;;5062127;28;20573;-67
2023/07/05 11:34:20;;;;;;;2.53;0.55;;;17.20;99.90;;;;;;5072147;28;20037;-68
2023/07/05 11:37:12;;;;;;;2.45;0.70;;;17.40;99.90;;;;;;5069131;28;20091;-68
2023/07/05 11:39:46;;;;;;;4.00;0.77;;;17.60;99.90;;;;;;5063936;28;20040;-67
2023/07/05 11:44:41;;;;;;;6.53;1.13;;;17.80;99.90;;;;;;5065524;28;20411;-67
2023/07/05 11:47:10;;;;;;;4.85;1.10;;;18.00;99.90;;;;;;5060317;28;20048;-67
2023/07/05 11:49:41;;;;;;;4.28;1.00;;;18.10;99.90;;;;;;5068913;28;20033;-67
2023/07/05 11:52:29;;;;;;;4.60;1.27;;;18.00;99.90;;;;;;5071915;28;20119;-67
2023/07/05 11:55:04;;;;;;;5.05;0.95;;;18.00;99.90;;;;;;5065553;28;20059;-67
2023/07/05 11:58:08;;;;;;;3.60;1.55;;;18.00;99.90;;;;;;5068563;28;20028;-67
2023/07/05 12:00:39;;;;;;;3.60;1.27;;;17.90;99.90;;;;;;5045401;28;20040;-67
2023/07/05 12:03:08;;;;;;;6.90;1.17;;;17.70;99.90;;;;;;5066396;28;20029;-67
2023/07/05 12:05:36;;;;;;;5.25;0.77;;;17.40;99.90;;;;;;5063419;28;20055;-67
2023/07/05 12:08:10;;;;;;;6.18;1.42;;;17.10;99.90;;;;;;5068273;28;20086;-67
2023/07/05 12:10:36;;;;;;;5.22;1.50;;;16.90;99.90;;;;;;5062747;28;20039;-68
2023/07/05 12:13:03;;;;;;;7.05;1.85;;;16.80;99.90;;;;;;5065131;28;20041;-67
2023/07/05 12:15:33;;;;;;;6.30;1.75;;;16.60;99.90;;;;;;5067674;28;20044;-68
2023/07/05 12:17:59;;;;;;;9.93;1.88;;;16.50;99.90;;;;;;5069176;28;20082;-68
2023/07/05 12:20:29;;;;;;;6.00;2.25;;;16.40;99.90;;;;;;5062380;28;20091;-69
2023/07/05 12:22:58;;;;;;;5.43;1.30;;;16.20;99.90;;;;;;5065090;28;20128;-68
2023/07/05 12:25:25;;;;;;;7.88;1.50;;;15.80;99.90;;;;;;5071733;28;20057;-69
2023/07/05 12:27:51;;;;;;;7.65;1.58;;;15.60;99.90;;;;;;5071515;28;20106;-69
2023/07/05 12:30:19;;;;;;;7.60;1.42;;;15.40;99.90;;;;;;5071182;28;20036;-68
2023/07/05 12:32:54;;;;;;;4.13;1.50;;;15.10;99.90;;;;;;5053628;28;20041;-69
2023/07/05 12:35:24;;;;;;;6.68;1.50;;;14.90;99.90;;;;;;5071563;28;20423;-69
2023/07/05 12:37:51;;;;;;;6.65;1.50;;;14.80;99.90;;;;;;5071553;28;20040;-69
2023/07/05 12:40:42;;;;;;;3.45;1.40;;;14.60;99.90;;;;;;5071020;28;20066;-69
2023/07/05 12:43:09;;;;;;;4.60;1.75;;;14.40;99.90;;;;;;5070947;28;20051;-68
2023/07/05 12:45:40;;;;;;;3.95;1.63;;;14.30;99.90;;;;;;5071511;28;20055;-68
2023/07/05 12:48:12;;;;;;;8.85;1.80;;;14.20;99.90;;;;;;5071100;28;20037;-68
2023/07/05 12:50:38;;;;;;;8.10;2.55;;;14.00;99.90;;;;;;5071095;28;20043;-69
2023/07/05 12:53:11;;;;;;;6.07;1.80;;;13.90;99.90;;;;;;5063919;28;20045;-67
2023/07/05 12:55:39;;;;;;;4.63;2.42;;;13.90;99.90;;;;;;5070448;28;20037;-68